createdAt,value
2018-06-03T00:02:20.138Z,17.90
2018-06-03T00:04:47.664Z,17.90
2018-06-03T00:07:15.193Z,17.90
2018-06-03T00:09:42.753Z,17.80
2018-06-03T00:12:11.019Z,17.70
2018-06-03T00:14:38.521Z,17.70
2018-06-03T00:17:06.033Z,17.70
2018-06-03T00:19:33.570Z,17.70
2018-06-03T00:22:01.866Z,17.60
2018-06-03T00:24:30.149Z,17.60
2018-06-03T00:26:58.444Z,17.50
2018-06-03T00:29:25.974Z,17.50
2018-06-03T00:31:53.492Z,17.40
2018-06-03T00:34:21.006Z,17.40
2018-06-03T00:36:49.284Z,17.30
2018-06-03T00:39:16.812Z,17.30
2018-06-03T00:41:44.366Z,17.30
2018-06-03T00:44:11.912Z,17.20
2018-06-03T00:46:39.450Z,17.20
2018-06-03T00:49:07.729Z,17.10
2018-06-03T00:52:24.321Z,17.10
2018-06-03T00:57:20.968Z,17.00
2018-06-03T00:59:49.423Z,17.00
2018-06-03T01:02:18.082Z,17.00
2018-06-03T01:04:46.575Z,16.90
2018-06-03T01:07:15.113Z,16.80
2018-06-03T01:09:43.615Z,16.80
2018-06-03T01:12:12.641Z,16.80
2018-06-03T01:14:41.111Z,16.80
2018-06-03T01:17:09.566Z,16.80
2018-06-03T01:19:38.089Z,16.80
2018-06-03T01:22:06.624Z,16.80
2018-06-03T01:24:35.124Z,16.80
2018-06-03T01:29:31.714Z,16.70
2018-06-03T01:32:00.134Z,16.70
2018-06-03T01:34:28.560Z,16.70
2018-06-03T01:36:57.044Z,16.70
2018-06-03T01:39:25.567Z,16.70
2018-06-03T01:41:54.022Z,16.70
2018-06-03T01:46:50.710Z,16.60
2018-06-03T01:49:19.157Z,16.60
2018-06-03T01:54:15.826Z,16.50
2018-06-03T01:56:44.298Z,16.50
2018-06-03T02:01:40.880Z,16.50
2018-06-03T02:04:09.393Z,16.40
2018-06-03T02:06:37.945Z,16.40
2018-06-03T02:09:07.041Z,16.40
2018-06-03T02:11:35.527Z,16.30
2018-06-03T02:14:04.042Z,16.30
2018-06-03T02:16:33.714Z,16.20
2018-06-03T02:19:02.227Z,16.10
2018-06-03T02:21:30.739Z,16.10
2018-06-03T02:23:59.186Z,16.10
2018-06-03T02:28:55.893Z,16.00
2018-06-03T02:31:24.444Z,16.00
2018-06-03T02:33:52.962Z,16.00
2018-06-03T02:36:21.390Z,16.00
2018-06-03T02:38:49.859Z,16.00
2018-06-03T02:41:18.383Z,16.00
2018-06-03T02:43:46.898Z,16.00
2018-06-03T02:46:15.328Z,15.90
2018-06-03T02:48:43.772Z,15.90
2018-06-03T02:51:12.270Z,15.90
2018-06-03T02:53:40.754Z,15.90
2018-06-03T02:56:09.436Z,15.90
2018-06-03T02:58:37.882Z,15.90
2018-06-03T03:01:06.436Z,15.90
2018-06-03T03:03:34.891Z,15.90
2018-06-03T03:06:03.485Z,15.80
2018-06-03T03:08:31.944Z,15.80
2018-06-03T03:11:00.388Z,15.80
2018-06-03T03:13:28.841Z,15.80
2018-06-03T03:15:57.379Z,15.70
2018-06-03T03:18:25.890Z,15.70
2018-06-03T03:20:54.343Z,15.70
2018-06-03T03:23:23.390Z,15.70
2018-06-03T03:25:51.979Z,15.70
2018-06-03T03:28:20.469Z,15.70
2018-06-03T03:30:48.934Z,15.70
2018-06-03T03:33:17.401Z,15.70
2018-06-03T03:38:14.003Z,15.70
2018-06-03T03:40:42.482Z,15.70
2018-06-03T03:43:11.031Z,15.70
2018-06-03T03:45:39.472Z,15.80
2018-06-03T03:48:08.024Z,15.80
2018-06-03T03:55:32.800Z,16.00
2018-06-03T03:58:01.256Z,16.00
2018-06-03T04:00:29.721Z,16.10
2018-06-03T04:02:58.239Z,16.10
2018-06-03T04:05:26.805Z,16.20
2018-06-03T04:07:55.279Z,16.30
2018-06-03T04:10:23.855Z,16.30
2018-06-03T04:12:52.397Z,16.40
2018-06-03T04:15:20.843Z,16.50
2018-06-03T04:17:49.359Z,16.50
2018-06-03T04:20:17.843Z,16.60
2018-06-03T04:22:46.328Z,16.70
2018-06-03T04:25:14.781Z,16.80
2018-06-03T04:27:43.401Z,16.90
2018-06-03T04:30:11.961Z,17.00
2018-06-03T04:35:08.550Z,17.10
2018-06-03T04:37:37.012Z,17.20
2018-06-03T04:40:05.518Z,17.20
2018-06-03T04:42:34.008Z,17.30
2018-06-03T04:45:02.486Z,17.40
2018-06-03T04:47:31.058Z,17.40
2018-06-03T04:49:59.569Z,17.50
2018-06-03T04:52:28.056Z,17.60
2018-06-03T04:54:56.595Z,17.70
2018-06-03T04:57:25.066Z,17.80
2018-06-03T04:59:53.518Z,17.90
2018-06-03T05:02:21.962Z,17.90
2018-06-03T05:04:50.453Z,17.90
2018-06-03T05:07:18.967Z,17.90
2018-06-03T05:09:47.455Z,18.00
2018-06-03T05:12:15.952Z,18.10
2018-06-03T05:14:44.448Z,18.10
2018-06-03T05:17:12.901Z,18.20
2018-06-03T05:19:41.406Z,18.30
2018-06-03T05:22:09.879Z,18.40
2018-06-03T05:24:38.366Z,18.50
2018-06-03T05:29:35.093Z,18.70
2018-06-03T05:32:03.579Z,18.80
2018-06-03T05:37:00.208Z,19.00
2018-06-03T05:39:28.660Z,19.00
2018-06-03T05:41:57.959Z,19.10
2018-06-03T05:44:26.419Z,19.10
2018-06-03T05:46:55.015Z,19.20
2018-06-03T05:49:23.614Z,19.20
2018-06-03T05:51:52.060Z,19.30
2018-06-03T05:54:20.625Z,19.40
2018-06-03T05:56:49.381Z,19.50
2018-06-03T05:59:17.849Z,19.60
2018-06-03T06:04:14.650Z,19.70
2018-06-03T06:06:43.144Z,19.90
2018-06-03T06:09:11.891Z,20.00
2018-06-03T06:11:40.356Z,20.20
2018-06-03T06:14:08.869Z,20.30
2018-06-03T06:16:37.330Z,20.40
2018-06-03T06:19:05.845Z,20.50
2018-06-03T06:21:34.351Z,20.60
2018-06-03T06:24:02.795Z,20.70
2018-06-03T06:26:31.307Z,20.70
2018-06-03T06:28:59.785Z,20.90
2018-06-03T06:31:28.314Z,21.00
2018-06-03T06:33:56.724Z,21.10
2018-06-03T06:36:25.243Z,21.20
2018-06-03T06:38:53.757Z,21.30
2018-06-03T06:41:22.232Z,21.40
2018-06-03T06:43:50.932Z,21.50
2018-06-03T06:46:19.431Z,21.60
2018-06-03T06:48:47.929Z,21.60
2018-06-03T06:51:16.442Z,21.60
2018-06-03T06:53:44.940Z,21.60
2018-06-03T06:58:41.724Z,21.80
2018-06-03T07:03:38.584Z,21.90
2018-06-03T07:06:07.161Z,22.00
2018-06-03T07:08:35.804Z,22.00
2018-06-03T07:11:04.448Z,22.10
2018-06-03T07:13:32.967Z,22.10
2018-06-03T07:16:01.494Z,22.20
2018-06-03T07:18:29.939Z,22.20
2018-06-03T07:20:58.401Z,22.30
2018-06-03T07:23:26.906Z,22.30
2018-06-03T07:25:55.368Z,22.40
2018-06-03T07:28:23.868Z,22.40
2018-06-03T07:30:52.473Z,22.50
2018-06-03T07:33:20.935Z,22.60
2018-06-03T07:35:49.413Z,22.70
2018-06-03T07:38:17.991Z,22.80
2018-06-03T07:40:47.010Z,22.90
2018-06-03T07:43:15.475Z,23.00
2018-06-03T07:45:44.017Z,23.10
2018-06-03T07:48:12.501Z,23.10
2018-06-03T07:50:41.469Z,23.20
2018-06-03T07:53:09.931Z,23.30
2018-06-03T07:58:06.631Z,23.20
2018-06-03T08:00:35.129Z,23.20
2018-06-03T08:03:03.700Z,23.20
2018-06-03T08:05:32.296Z,23.30
2018-06-03T08:08:00.810Z,23.40
2018-06-03T08:10:29.265Z,23.50
2018-06-03T08:12:57.750Z,23.70
2018-06-03T08:15:26.323Z,23.80
2018-06-03T08:17:55.161Z,23.90
2018-06-03T08:20:23.687Z,23.90
2018-06-03T08:22:52.281Z,24.00
2018-06-03T08:25:20.803Z,24.10
2018-06-03T08:27:49.278Z,24.10
2018-06-03T08:30:17.859Z,24.20
2018-06-03T08:32:46.360Z,24.30
2018-06-03T08:35:14.877Z,24.40
2018-06-03T08:37:43.367Z,24.40
2018-06-03T08:40:11.816Z,24.50
2018-06-03T08:42:40.400Z,24.40
2018-06-03T08:45:09.026Z,24.20
2018-06-03T08:47:37.569Z,24.00
2018-06-03T08:50:06.125Z,23.90
2018-06-03T08:52:34.740Z,24.00
2018-06-03T08:55:03.279Z,24.10
2018-06-03T08:57:31.736Z,24.30
2018-06-03T09:00:00.283Z,24.40
2018-06-03T09:02:28.787Z,24.50
2018-06-03T09:04:57.273Z,24.60
2018-06-03T09:07:25.857Z,24.60
2018-06-03T09:09:54.333Z,24.50
2018-06-03T09:12:22.828Z,24.60
2018-06-03T09:14:51.387Z,24.70
2018-06-03T09:17:20.004Z,24.90
2018-06-03T09:19:48.536Z,24.90
2018-06-03T09:22:17.060Z,24.80
2018-06-03T09:24:45.916Z,24.90
2018-06-03T09:27:14.504Z,25.00
2018-06-03T09:29:43.052Z,25.20
2018-06-03T09:32:11.962Z,25.10
2018-06-03T09:34:40.536Z,25.10
2018-06-03T09:37:08.987Z,25.20
2018-06-03T09:42:05.865Z,25.40
2018-06-03T09:44:34.403Z,25.60
2018-06-03T09:47:02.896Z,25.60
2018-06-03T09:49:31.503Z,25.50
2018-06-03T09:51:59.985Z,25.50
2018-06-03T09:56:56.904Z,25.50
2018-06-03T09:59:25.358Z,25.60
2018-06-03T10:01:53.824Z,25.70
2018-06-03T10:04:22.303Z,25.70
2018-06-03T10:06:50.890Z,25.80
2018-06-03T10:09:19.491Z,25.90
2018-06-03T10:14:16.407Z,26.20
2018-06-03T10:16:45.909Z,26.30
2018-06-03T10:19:14.469Z,26.40
2018-06-03T10:21:42.985Z,26.50
2018-06-03T10:24:11.534Z,26.50
2018-06-03T10:31:36.353Z,26.00
2018-06-03T10:34:05.008Z,26.10
2018-06-03T10:36:33.486Z,26.20
2018-06-03T10:39:02.086Z,26.30
2018-06-03T10:41:30.596Z,26.30
2018-06-03T10:43:59.093Z,26.40
2018-06-03T10:46:27.588Z,26.50
2018-06-03T10:48:56.123Z,26.50
2018-06-03T10:51:24.631Z,26.50
2018-06-03T10:53:53.124Z,26.60
2018-06-03T10:56:22.179Z,26.70
2018-06-03T10:58:50.657Z,26.70
2018-06-03T11:01:19.151Z,26.80
2018-06-03T11:06:16.544Z,26.50
2018-06-03T11:16:09.742Z,26.10
2018-06-03T11:21:06.391Z,26.20
2018-06-03T11:26:03.108Z,26.40
2018-06-03T11:28:31.596Z,26.40
2018-06-03T11:31:00.097Z,26.50
2018-06-03T11:33:28.672Z,26.50
2018-06-03T11:35:57.130Z,26.70
2018-06-03T11:38:25.618Z,26.80
2018-06-03T11:40:54.089Z,26.90
2018-06-03T11:43:22.598Z,27.00
2018-06-03T11:45:51.091Z,27.10
2018-06-03T11:48:19.672Z,27.10
2018-06-03T11:50:48.259Z,27.20
2018-06-03T11:53:16.752Z,27.30
2018-06-03T11:55:45.251Z,27.20
2018-06-03T11:58:55.201Z,27.10
2018-06-03T12:01:24.277Z,27.00
2018-06-03T12:03:52.741Z,27.10
2018-06-03T12:06:21.914Z,27.20
2018-06-03T12:08:50.483Z,27.20
2018-06-03T12:11:19.071Z,27.20
2018-06-03T12:13:47.577Z,27.30
2018-06-03T12:16:16.843Z,27.40
2018-06-03T12:18:45.411Z,27.40
2018-06-03T12:21:14.507Z,27.30
2018-06-03T12:26:11.175Z,27.20
2018-06-03T12:28:39.693Z,27.10
2018-06-03T12:31:08.196Z,27.00
2018-06-03T12:33:36.840Z,26.90
2018-06-03T12:38:33.578Z,26.90
2018-06-03T12:41:02.014Z,27.00
2018-06-03T12:43:30.481Z,27.10
2018-06-03T12:48:27.108Z,27.20
2018-06-03T12:50:55.584Z,27.20
2018-06-03T12:53:24.125Z,27.10
2018-06-03T12:55:52.619Z,27.20
2018-06-03T12:58:21.181Z,27.10
2018-06-03T13:03:17.828Z,26.80
2018-06-03T13:05:46.284Z,26.90
2018-06-03T13:08:14.795Z,27.00
2018-06-03T13:10:43.263Z,27.20
2018-06-03T13:13:11.747Z,27.30
2018-06-03T13:15:40.234Z,27.40
2018-06-03T13:18:08.719Z,27.30
2018-06-03T13:20:37.184Z,27.30
2018-06-03T13:23:05.646Z,27.30
2018-06-03T13:28:02.383Z,27.20
2018-06-03T13:30:30.887Z,27.20
2018-06-03T13:35:27.550Z,27.60
2018-06-03T13:40:24.213Z,27.60
2018-06-03T13:45:20.882Z,27.90
2018-06-03T13:47:49.332Z,28.00
2018-06-03T13:50:17.811Z,28.00
2018-06-03T13:52:46.298Z,27.80
2018-06-03T13:55:14.756Z,27.70
2018-06-03T13:57:43.241Z,27.90
2018-06-03T14:00:11.704Z,28.10
2018-06-03T14:02:40.251Z,28.20
2018-06-03T14:05:08.730Z,28.30
2018-06-03T14:07:37.182Z,28.40
2018-06-03T14:10:05.896Z,28.50
2018-06-03T14:12:34.499Z,28.60
2018-06-03T14:15:03.005Z,28.70
2018-06-03T14:19:59.701Z,28.50
2018-06-03T14:22:28.146Z,28.40
2018-06-03T14:24:56.630Z,28.30
2018-06-03T14:27:25.200Z,28.40
2018-06-03T14:29:53.736Z,28.40
2018-06-03T14:32:22.219Z,28.20
2018-06-03T14:34:50.708Z,28.20
2018-06-03T14:44:43.821Z,27.60
2018-06-03T14:49:40.575Z,27.70
2018-06-03T14:52:09.036Z,27.70
2018-06-03T14:54:37.526Z,27.60
2018-06-03T14:57:06.035Z,27.60
2018-06-03T15:02:03.067Z,27.80
2018-06-03T15:04:31.633Z,27.90
2018-06-03T15:07:00.149Z,27.90
2018-06-03T15:14:25.008Z,27.70
2018-06-03T15:16:53.470Z,27.60
2018-06-03T15:21:50.242Z,27.20
2018-06-03T15:24:18.705Z,26.90
2018-06-03T15:26:47.280Z,26.80
2018-06-03T15:29:15.976Z,26.80
2018-06-03T15:31:44.464Z,26.80
2018-06-03T15:34:13.003Z,26.80
2018-06-03T15:39:09.678Z,26.80
2018-06-03T15:44:06.420Z,27.10
2018-06-03T15:46:34.933Z,27.30
2018-06-03T15:51:31.720Z,27.20
2018-06-03T15:54:00.285Z,27.10
2018-06-03T15:56:28.768Z,27.10
2018-06-03T15:58:57.246Z,27.00
2018-06-03T16:01:25.783Z,26.90
2018-06-03T16:03:54.243Z,26.80
2018-06-03T16:06:23.327Z,26.70
2018-06-03T16:08:51.789Z,26.70
2018-06-03T16:11:20.254Z,26.70
2018-06-03T16:13:49.413Z,26.80
2018-06-03T16:16:17.955Z,26.80
2018-06-03T16:18:46.417Z,26.90
2018-06-03T16:28:39.464Z,26.60
2018-06-03T16:31:07.957Z,26.60
2018-06-03T16:33:36.422Z,26.60
2018-06-03T16:36:05.131Z,26.60
2018-06-03T16:38:33.707Z,26.70
2018-06-03T16:41:02.201Z,26.60
2018-06-03T16:43:30.750Z,26.50
2018-06-03T16:45:59.262Z,26.40
2018-06-03T16:48:27.773Z,26.30
2018-06-03T16:53:24.433Z,26.10
2018-06-03T16:55:53.042Z,26.00
2018-06-03T17:00:49.764Z,25.90
2018-06-03T17:03:18.236Z,25.90
2018-06-03T17:05:46.750Z,25.90
2018-06-03T17:08:15.366Z,25.90
2018-06-03T17:13:12.147Z,25.80
2018-06-03T17:15:40.582Z,25.70
2018-06-03T17:18:09.184Z,25.80
2018-06-03T17:20:37.725Z,25.80
2018-06-03T17:23:06.293Z,25.70
2018-06-03T17:28:03.673Z,25.70
2018-06-03T17:33:00.472Z,25.50
2018-06-03T17:35:29.158Z,25.50
2018-06-03T17:37:57.735Z,25.40
2018-06-03T17:40:27.023Z,25.30
2018-06-03T17:45:25.507Z,25.20
2018-06-03T17:52:50.911Z,25.10
2018-06-03T17:55:19.582Z,25.00
2018-06-03T17:57:48.198Z,25.00
2018-06-03T18:00:16.780Z,24.90
2018-06-03T18:02:45.302Z,24.90
2018-06-03T18:05:13.899Z,24.80
2018-06-03T18:07:42.607Z,24.80
2018-06-03T18:10:11.739Z,24.70
2018-06-03T18:12:40.753Z,24.70
2018-06-03T18:15:10.352Z,24.60
2018-06-03T18:17:39.182Z,24.60
2018-06-03T18:22:36.465Z,24.50
2018-06-03T18:25:05.249Z,24.40
2018-06-03T18:27:35.094Z,24.40
2018-06-03T18:30:04.962Z,24.40
2018-06-03T18:32:34.333Z,24.30
2018-06-03T18:35:03.180Z,24.30
2018-06-03T18:37:31.941Z,24.20
2018-06-03T18:40:01.444Z,24.10
2018-06-03T18:42:30.316Z,24.10
2018-06-03T18:44:59.700Z,24.00
2018-06-03T18:49:57.826Z,23.90
2018-06-03T18:52:26.922Z,23.90
2018-06-03T18:54:55.900Z,23.80
2018-06-03T18:57:25.374Z,23.80
2018-06-03T18:59:54.364Z,23.70
2018-06-03T19:02:23.750Z,23.60
2018-06-03T19:04:53.794Z,23.50
2018-06-03T19:07:24.787Z,23.40
2018-06-03T19:09:53.703Z,23.40
2018-06-03T19:12:23.500Z,23.30
2018-06-03T19:17:22.404Z,23.20
2018-06-03T19:22:21.042Z,23.00
2018-06-03T19:24:52.055Z,23.00
2018-06-03T19:29:49.953Z,22.90
2018-06-03T19:32:19.031Z,22.80
2018-06-03T19:34:48.780Z,22.70
2018-06-03T19:37:17.701Z,22.60
2018-06-03T19:39:46.926Z,22.50
2018-06-03T19:42:15.996Z,22.50
2018-06-03T19:44:45.235Z,22.40
2018-06-03T19:47:16.343Z,22.30
2018-06-03T19:49:45.454Z,22.30
2018-06-03T19:52:14.269Z,22.20
2018-06-03T19:54:43.212Z,22.20
2018-06-03T19:57:12.503Z,22.10
2018-06-03T20:02:09.987Z,22.00
2018-06-03T20:09:37.064Z,21.90
2018-06-03T20:12:05.842Z,21.80
2018-06-03T20:14:34.804Z,21.70
2018-06-03T20:17:03.846Z,21.70
2018-06-03T20:19:32.890Z,21.70
2018-06-03T20:22:01.827Z,21.60
2018-06-03T20:24:30.653Z,21.60
2018-06-03T20:26:59.416Z,21.50
2018-06-03T20:29:28.875Z,21.50
2018-06-03T20:31:57.942Z,21.40
2018-06-03T20:36:55.265Z,21.30
2018-06-03T20:39:24.131Z,21.30
2018-06-03T20:41:52.978Z,21.20
2018-06-03T20:44:21.795Z,21.20
2018-06-03T20:46:50.333Z,21.10
2018-06-03T20:49:18.872Z,21.10
2018-06-03T20:54:16.026Z,21.00
2018-06-03T20:56:44.514Z,20.90
2018-06-03T20:59:13.047Z,20.90
2018-06-03T21:04:09.857Z,20.80
2018-06-03T21:06:38.393Z,20.70
2018-06-03T21:11:36.204Z,20.60
2018-06-03T21:14:04.751Z,20.60
2018-06-03T21:19:01.573Z,20.50
2018-06-03T21:21:30.040Z,20.40
2018-06-03T21:23:58.532Z,20.40
2018-06-03T21:26:26.999Z,20.30
2018-06-03T21:31:23.650Z,20.30
2018-06-03T21:33:52.151Z,20.20
2018-06-03T21:36:20.647Z,20.20
2018-06-03T21:38:49.126Z,20.10
2018-06-03T21:41:17.676Z,20.10
2018-06-03T21:43:46.141Z,20.00
2018-06-03T21:46:14.579Z,20.00
2018-06-03T21:48:43.113Z,19.90
2018-06-03T21:51:11.654Z,19.90
2018-06-03T22:03:33.023Z,19.60
2018-06-03T22:06:01.579Z,19.60
2018-06-03T22:08:30.126Z,19.50
2018-06-03T22:15:54.907Z,19.40
2018-06-03T22:18:23.383Z,19.40
2018-06-03T22:20:51.842Z,19.30
2018-06-03T22:28:16.671Z,19.20
2018-06-03T22:33:13.272Z,19.10
2018-06-03T22:35:41.835Z,19.10
2018-06-03T22:40:38.450Z,19.00
2018-06-03T22:43:06.975Z,19.00
2018-06-03T22:48:03.643Z,18.90
2018-06-03T22:53:00.309Z,18.80
2018-06-03T22:57:57.089Z,18.80
2018-06-03T23:00:28.194Z,18.70
2018-06-03T23:03:02.063Z,18.60
2018-06-03T23:05:30.648Z,18.60
2018-06-03T23:07:59.192Z,18.60
2018-06-03T23:12:56.005Z,18.50
2018-06-03T23:15:24.751Z,18.40
2018-06-03T23:20:21.389Z,18.40
2018-06-03T23:22:49.940Z,18.30
2018-06-03T23:25:18.385Z,18.30
2018-06-03T23:30:14.986Z,18.30
2018-06-03T23:32:43.403Z,18.20
2018-06-03T23:35:11.962Z,18.20
2018-06-03T23:37:40.401Z,18.10
2018-06-03T23:42:37.014Z,18.10
2018-06-03T23:45:05.510Z,18.10
2018-06-03T23:47:34.000Z,18.00
2018-06-03T23:50:02.482Z,18.00
2018-06-03T23:52:30.930Z,18.00
2018-06-03T23:55:00.051Z,17.90
2018-06-03T23:57:28.539Z,17.90
2018-06-03T23:59:56.992Z,17.90
